Station: Trepell  

  Atmospheric Gas Attenuation - ITU Rec 676-11   ----------------- dB/100km -----------------
Date Time Temp RH % AH g/m3 Dew Point Wind Direction Speed kph Gust kph Barometer mB Rainfall Since 9am 24GHz 47GHz 76GHz 122GHz 134GHz 241GHz
08/05 12:40 24.1 32 7 6.4 17 24 1019.4 0 15.8 21.1 29.8 77.9 68.9 236.1
08/05 12:30 24.3 32 7.08 6.6 22 35 1019.7 0 15.9 21.2 30.0 78.4 69.6 238.7
08/05 12:20 23.7 32 6.84 6 24 30 1020 0 15.5 21.0 29.5 76.9 67.5 231.3
08/05 12:10 23.1 33 6.82 6 26 30 1020.2 0 15.4 21.1 29.6 77.3 67.8 232.2
08/05 12:00 23.8 33 7.1 6.6 20 32 1020.4 0 16.0 21.3 30.3 79.1 70.3 241.1
08/05 11:50 22 34 6.6 5.4 19 20 1020.6 0 15.0 21.1 29.3 76.4 66.3 226.8
08/05 11:40 23.2 34 7.07 6.5 24 28 1020.6 0 15.9 21.4 30.4 79.5 70.5 241.7
08/05 11:30 22.1 34 6.64 5.5 24 33 1020.8 0 15.1 21.1 29.4 76.7 66.7 228.2
08/05 11:20 22 34 6.6 5.4 19 22 1021.1 0 15.0 21.1 29.3 76.4 66.3 226.9
08/05 11:10 21.8 35 6.71 5.7 20 24 1021.3 0 15.3 21.3 29.8 77.6 67.7 231.8
08/05 11:00 21.7 36 6.87 6 20 32 1021.4 0 15.6 21.5 30.3 79.2 69.6 238.4
08/05 10:50 21.3 35 6.52 5.2 22 28 1021.5 0 14.9 21.2 29.3 76.4 66.0 225.8
08/05 10:40 20.8 36 6.52 5.2 22 26 1021.6 0 14.9 21.3 29.5 76.9 66.4 227.2
08/05 10:30 20.6 37 6.62 5.4 30 32 1021.5 0 15.1 21.5 29.9 78.0 67.7 231.7
08/05 10:20 20.5 37 6.58 5.3 28 32 1021.6 0 15.0 21.4 29.8 77.7 67.4 230.4
08/05 10:10 20.5 38 6.76 5.7 20 24 1021.5 0 15.4 21.7 30.4 79.3 69.4 237.5
08/05 10:00 20.5 38 6.76 5.7 26 37 1021.5 0 15.4 21.7 30.4 79.3 69.4 237.5
08/05 09:50 19.8 39 6.66 5.5 30 33 1021.6 0 15.2 21.7 30.3 79.1 68.9 235.6
08/05 09:40 18.6 41 6.52 5.1 28 33 1021.6 0 15.0 21.8 30.3 79.0 68.3 233.4
08/05 09:30 18.4 41 6.45 4.9 28 35 1021.5 0 14.8 21.7 30.1 78.5 67.6 231.1
08/05 09:20 18.7 41 6.56 5.2 28 32 1021.7 0 15.1 21.8 30.4 79.2 68.7 234.7
08/05 09:10 17.6 44 6.6 5.2 26 30 1021.6 0 15.2 22.1 30.9 80.7 70.1 239.6
08/05 09:00 18.1 43 6.64 5.3 24 33 1021.7 0 15.2 22.1 30.9 80.6 70.1 239.7
08/05 08:50 17.7 44 6.64 5.3 24 28 1021.6 0 15.3 22.2 31.0 81.0 70.4 240.9
08/05 08:40 17.8 44 6.68 5.4 22 26 1021.5 0 15.3 22.2 31.1 81.2 70.8 242.2
08/05 08:30 17.3 45 6.63 5.3 22 32 1021.4 0 15.3 22.2 31.1 81.3 70.7 241.6
08/05 08:20 17.1 46 6.7 5.4 20 24 1021.2 0 15.4 22.4 31.5 82.1 71.7 245.1
08/05 08:10 16.4 47 6.56 5.1 24 30 1021.1 0 15.1 22.4 31.2 81.5 70.6 241.4
08/05 08:00 16.3 48 6.66 5.3 20 28 1021 0 15.4 22.5 31.6 82.5 71.9 245.8
08/05 07:50 15.6 49 6.52 4.9 20 24 1020.8 0 15.1 22.5 31.4 81.9 70.8 242.0
08/05 07:40 15.6 49 6.52 4.9 19 20 1020.8 0 15.1 22.5 31.4 81.9 70.8 242.0
08/05 07:30 15.4 49 6.44 4.8 15 20 1020.9 0 14.9 22.4 31.2 81.3 70.1 239.3
08/05 07:20 15.1 50 6.45 4.8 13 17 1020.7 0 15.0 22.5 31.3 81.7 70.4 240.5
08/05 07:10 15.1 50 6.45 4.8 19 20 1020.4 0 15.0 22.5 31.3 81.6 70.4 240.5
08/05 07:00 14.7 50 6.3 4.4 15 17 1020.5 0 14.7 22.4 30.9 80.6 69.0 235.3
08/05 06:50 14.6 50 6.26 4.3 15 17 1020.2 0 14.6 22.3 30.8 80.3 68.6 233.9
08/05 06:40 14.8 50 6.33 4.5 15 19 1020.1 0 14.7 22.4 31.0 80.8 69.2 236.2
08/05 06:30 14.9 49 6.24 4.3 17 22 1019.9 0 14.5 22.2 30.6 79.8 68.0 232.1
08/05 06:20 15.2 48 6.23 4.3 19 24 1019.7 0 14.5 22.1 30.4 79.4 67.7 230.8
08/05 06:10 15.1 48 6.19 4.2 17 20 1019.6 0 14.4 22.1 30.3 79.1 67.3 229.4
08/05 06:00 15.2 48 6.23 4.3 17 24 1019.7 0 14.5 22.1 30.4 79.4 67.7 230.8
08/05 05:50 15.1 48 6.19 4.2 17 20 1019.5 0 14.4 22.1 30.3 79.1 67.2 229.4
08/05 05:40 15.5 46 6.08 3.9 19 22 1019.6 0 14.2 21.8 29.8 77.6 65.6 223.7
08/05 05:30 15.6 47 6.25 4.3 17 26 1019.6 0 14.5 22.0 30.4 79.1 67.5 230.5
08/05 05:20 15.5 46 6.08 3.9 19 20 1019.4 0 14.2 21.8 29.8 77.6 65.6 223.7
08/05 05:10 15.6 46 6.12 4 17 19 1019.5 0 14.2 21.8 29.9 77.9 66.0 225.1
08/05 05:00 15.4 47 6.17 4.2 15 20 1019.4 0 14.4 22.0 30.1 78.6 66.8 227.7
08/05 04:50 15.9 45 6.09 4 17 20 1019.3 0 14.2 21.7 29.7 77.3 65.4 223.0
08/05 04:40 16 44 5.99 3.8 15 20 1019.2 0 14.0 21.6 29.3 76.3 64.1 218.6
08/05 04:30 16.1 44 6.03 3.9 19 28 1019.1 0 14.0 21.6 29.4 76.5 64.5 219.9
08/05 04:20 15.9 44 5.96 3.7 17 19 1019.1 0 13.9 21.5 29.2 76.1 63.9 217.6
08/05 04:10 15.9 45 6.09 4 17 24 1018.8 0 14.2 21.7 29.6 77.3 65.4 222.9
08/05 04:00 16.1 44 6.03 3.9 17 24 1018.9 0 14.0 21.6 29.4 76.5 64.5 219.9
08/05 03:50 16 45 6.13 4.1 17 19 1018.8 0 14.3 21.7 29.7 77.5 65.8 224.2
08/05 03:40 16.1 44 6.03 3.9 17 20 1019 0 14.0 21.6 29.4 76.5 64.5 219.9
08/05 03:30 16 44 5.99 3.8 17 22 1019.1 0 14.0 21.6 29.3 76.2 64.1 218.6
08/05 03:20 15.9 45 6.09 4 17 20 1019 0 14.2 21.7 29.7 77.3 65.4 222.9
08/05 03:10 16.3 43 5.97 3.7 17 20 1019.1 0 13.9 21.5 29.1 75.8 63.7 216.9
08/05 03:00 16.4 42 5.86 3.5 15 24 1019.2 0 13.7 21.3 28.7 74.7 62.3 212.2
08/05 02:50 16.6 41 5.79 3.3 15 17 1019.2 0 13.5 21.1 28.4 73.8 61.4 208.9
08/05 02:40 16.8 41 5.86 3.5 20 26 1019.1 0 13.7 21.2 28.5 74.3 62.0 211.2
08/05 02:30 16.9 41 5.9 3.6 20 28 1019.2 0 13.7 21.2 28.6 74.6 62.4 212.5
08/05 02:20 16.9 41 5.9 3.6 22 24 1018.9 0 13.7 21.2 28.6 74.6 62.4 212.5
08/05 02:10 17.1 40 5.82 3.4 19 22 1019 0 13.6 21.1 28.3 73.6 61.3 208.8
08/05 02:00 17.2 39 5.71 3.1 20 28 1019.3 0 13.3 20.9 27.9 72.6 60.0 204.2
08/05 01:50 17.5 39 5.81 3.4 20 24 1019.2 0 13.5 21.0 28.1 73.2 60.9 207.4
08/05 01:40 17.6 38 5.7 3.1 26 33 1019.1 0 13.3 20.8 27.7 72.1 59.6 202.8
08/05 01:30 17.7 38 5.73 3.2 22 28 1019.4 0 13.4 20.8 27.8 72.3 59.9 203.7
08/05 01:20 17.8 38 5.77 3.3 19 20 1019.2 0 13.4 20.8 27.9 72.6 60.2 205.0
08/05 01:10 17.6 39 5.85 3.5 17 20 1019.3 0 13.6 21.0 28.2 73.5 61.3 208.8
08/05 01:00 17.5 40 5.96 3.8 17 28 1019.4 0 13.8 21.2 28.6 74.6 62.6 213.4
08/05 00:50 16.5 44 6.18 4.2 17 19 1019.2 0 14.3 21.7 29.8 77.6 65.9 225.0
08/05 00:40 16 46 6.27 4.4 15 17 1019.6 0 14.5 22.0 30.3 78.9 67.4 230.2
08/05 00:30 15.7 48 6.42 4.7 13 17 1019.7 0 14.9 22.3 30.9 80.7 69.5 237.3
08/05 00:20 15.7 48 6.42 4.7 13 15 1019.5 0 14.9 22.3 30.9 80.7 69.5 237.3
08/05 00:10 15.4 49 6.44 4.8 13 13 1019.5 0 14.9 22.4 31.1 81.2 70.0 239.0
08/05 00:00 15.5 49 6.48 4.8 11 15 1019.5 0 15.0 22.4 31.2 81.5 70.4 240.4
07/05 23:50 15.8 48 6.46 4.8 13 13 1019.5 0 15.0 22.3 31.0 81.0 69.9 238.6
07/05 23:40 16.1 47 6.44 4.8 15 17 1019.6 0 14.9 22.2 30.8 80.5 69.4 236.9
07/05 23:30 16.4 46 6.42 4.8 13 17 1019.5 0 14.8 22.1 30.7 80.0 68.9 235.2
07/05 23:20 16.6 45 6.36 4.6 13 15 1019.4 0 14.7 22.0 30.4 79.2 68.0 232.1
07/05 23:10 17 44 6.37 4.7 13 15 1019.6 0 14.7 21.9 30.3 78.9 67.8 231.5
07/05 23:00 17.4 43 6.37 4.7 15 19 1019.5 0 14.7 21.8 30.1 78.5 67.4 230.3
07/05 22:50 17.9 41 6.26 4.5 15 17 1019.6 0 14.5 21.5 29.6 77.0 65.8 224.5
07/05 22:40 18.3 40 6.25 4.5 17 20 1019.5 0 14.4 21.4 29.4 76.6 65.3 222.9
07/05 22:30 18.7 39 6.24 4.5 15 20 1019.6 0 14.4 21.3 29.2 76.1 64.9 221.5
07/05 22:20 18.9 39 6.32 4.7 15 19 1019.5 0 14.5 21.4 29.4 76.6 65.6 224.1
07/05 22:10 19.1 39 6.39 4.8 15 17 1019.5 0 14.7 21.4 29.6 77.1 66.2 226.4
07/05 22:00 19.3 38 6.3 4.6 17 20 1019.8 0 14.5 21.3 29.2 76.1 65.1 222.3
07/05 21:50 19.6 38 6.41 4.9 19 20 1019.7 0 14.7 21.3 29.5 76.8 66.1 225.8
07/05 21:40 19.7 37 6.28 4.6 15 19 1019.6 0 14.4 21.1 29.0 75.5 64.5 220.4
07/05 21:30 19.9 37 6.36 4.8 17 22 1019.6 0 14.6 21.2 29.2 76.1 65.3 223.0
07/05 21:20 19.7 39 6.62 5.4 19 20 1019.5 0 15.1 21.6 30.1 78.6 68.4 233.9
07/05 21:10 19.7 40 6.79 5.7 17 19 1019.4 0 15.5 21.8 30.7 80.2 70.3 240.7
07/05 21:00 19.8 41 7 6.2 15 20 1019.4 0 15.9 22.1 31.4 82.1 72.6 248.8
07/05 20:50 19.9 41 7.04 6.3 17 19 1019.2 0 16.0 22.1 31.5 82.3 73.0 250.1
07/05 20:40 19.8 43 7.34 6.9 15 19 1019 0 16.6 22.6 32.6 85.2 76.5 262.6
07/05 20:30 19.7 44 7.47 7.1 15 19 1019 0 16.9 22.8 33.1 86.6 78.2 268.2
07/05 20:20 19.6 45 7.6 7.4 13 17 1018.9 0 17.2 23.0 33.6 87.9 79.8 273.9
07/05 20:10 19.9 44 7.56 7.3 15 17 1019 0 17.1 22.9 33.3 87.2 79.0 271.3

Last Refresh: 08-May-2026 12:09:34

Bureau of Meteorology